createdAt,value
2022-11-20T00:02:33.765Z,98342.52
2022-11-20T00:07:35.672Z,98333.16
2022-11-20T00:12:41.195Z,98321.56
2022-11-20T00:17:43.079Z,98318.30
2022-11-20T00:22:44.971Z,98321.55
2022-11-20T00:27:46.786Z,98325.17
2022-11-20T00:32:48.641Z,98328.02
2022-11-20T00:37:50.505Z,98325.85
2022-11-20T00:42:52.395Z,98326.95
2022-11-20T00:47:58.427Z,98323.80
2022-11-20T00:53:00.230Z,98319.94
2022-11-20T00:58:04.499Z,98312.09
2022-11-20T01:03:06.672Z,98306.16
2022-11-20T01:08:08.624Z,98310.19
2022-11-20T01:13:29.311Z,98309.39
2022-11-20T01:18:31.205Z,98303.94
2022-11-20T01:23:37.886Z,98305.83
2022-11-20T01:28:41.497Z,98300.83
2022-11-20T01:33:44.105Z,98293.05
2022-11-20T01:38:46.506Z,98280.75
2022-11-20T01:43:48.380Z,98272.42
2022-11-20T01:49:22.884Z,98259.98
2022-11-20T01:54:34.924Z,98262.40
2022-11-20T01:59:42.151Z,98264.10
2022-11-20T02:04:44.944Z,98273.33
2022-11-20T02:09:46.754Z,98283.46
2022-11-20T02:14:48.599Z,98284.73
2022-11-20T02:19:50.484Z,98285.98
2022-11-20T02:24:52.501Z,98286.92
2022-11-20T02:30:04.260Z,98289.84
2022-11-20T02:35:10.565Z,98295.89
2022-11-20T02:40:12.419Z,98303.96
2022-11-20T02:45:14.595Z,98303.71
2022-11-20T02:50:17.494Z,98301.80
2022-11-20T02:55:19.440Z,98304.88
2022-11-20T03:00:21.478Z,98301.23
2022-11-20T03:05:23.334Z,98304.52
2022-11-20T03:10:25.170Z,98302.89
2022-11-20T03:15:27.257Z,98298.89
2022-11-20T03:20:29.246Z,98298.59
2022-11-20T03:25:31.331Z,98299.85
2022-11-20T03:30:33.523Z,98301.05
2022-11-20T03:35:35.345Z,98297.19
2022-11-20T03:40:37.265Z,98301.67
2022-11-20T03:45:39.095Z,98297.27
2022-11-20T03:50:40.936Z,98296.67
2022-11-20T03:55:43.349Z,98299.13
2022-11-20T04:00:45.437Z,98293.83
2022-11-20T04:05:47.287Z,98296.70
2022-11-20T04:10:49.173Z,98294.00
2022-11-20T04:15:50.970Z,98297.11
2022-11-20T04:20:52.813Z,98298.39
2022-11-20T04:25:54.788Z,98297.03
2022-11-20T04:31:06.399Z,98285.73
2022-11-20T04:36:12.921Z,98277.36
2022-11-20T04:41:18.231Z,98267.95
2022-11-20T04:46:21.313Z,98263.59
2022-11-20T04:51:23.280Z,98258.39
2022-11-20T04:56:25.107Z,98258.52
2022-11-20T05:01:27.031Z,98251.59
2022-11-20T05:06:29.727Z,98241.50
2022-11-20T05:11:33.219Z,98237.23
2022-11-20T05:16:36.420Z,98233.78
2022-11-20T05:21:38.263Z,98243.85
2022-11-20T05:26:40.091Z,98241.40
2022-11-20T05:31:42.751Z,98239.48
2022-11-20T05:36:44.567Z,98229.31
2022-11-20T05:41:46.391Z,98227.76
2022-11-20T05:46:48.251Z,98235.36
2022-11-20T05:51:50.041Z,98235.59
2022-11-20T05:56:51.969Z,98223.60
2022-11-20T06:01:53.824Z,98217.80
2022-11-20T06:06:55.749Z,98218.70
2022-11-20T06:11:57.687Z,98219.28
2022-11-20T06:16:59.690Z,98224.23
2022-11-20T06:22:01.511Z,98228.46
2022-11-20T06:27:03.403Z,98228.66
2022-11-20T06:32:05.322Z,98225.39
2022-11-20T06:37:10.030Z,98225.33
2022-11-20T06:42:11.935Z,98226.96
2022-11-20T06:47:13.753Z,98216.09
2022-11-20T06:52:15.583Z,98207.30
2022-11-20T06:57:17.447Z,98213.14
2022-11-20T07:02:19.257Z,98219.64
2022-11-20T07:07:21.072Z,98210.02
2022-11-20T07:12:22.957Z,98204.48
2022-11-20T07:17:24.759Z,98196.27
2022-11-20T07:22:26.560Z,98193.28
2022-11-20T07:27:29.045Z,98195.98
2022-11-20T07:32:31.017Z,98193.60
2022-11-20T07:37:36.054Z,98191.31
2022-11-20T07:42:37.883Z,98190.20
2022-11-20T07:47:39.718Z,98187.67
2022-11-20T07:52:42.114Z,98192.79
2022-11-20T07:57:43.992Z,98195.76
2022-11-20T08:02:45.787Z,98196.09
2022-11-20T08:07:47.998Z,98202.15
2022-11-20T08:13:12.863Z,98205.19
2022-11-20T08:18:30.613Z,98215.00
2022-11-20T08:23:33.902Z,98218.87
2022-11-20T08:28:35.829Z,98219.77
2022-11-20T08:33:37.739Z,98223.38
2022-11-20T08:38:39.651Z,98220.16
2022-11-20T08:43:41.532Z,98219.37
2022-11-20T08:48:43.830Z,98214.74
2022-11-20T08:53:49.598Z,98212.64
2022-11-20T08:59:18.292Z,98218.27
2022-11-20T09:04:15.500Z,98226.54
2022-11-20T09:09:19.029Z,98223.36
2022-11-20T09:14:22.456Z,98223.90
2022-11-20T09:19:35.769Z,98214.80
2022-11-20T09:24:38.585Z,98217.81
2022-11-20T09:29:40.433Z,98210.85
2022-11-20T09:34:43.290Z,98200.09
2022-11-20T09:39:45.095Z,98196.50
2022-11-20T09:45:10.294Z,98186.06
2022-11-20T09:50:42.078Z,98177.20
2022-11-20T09:55:44.053Z,98174.55
2022-11-20T10:00:47.103Z,98171.85
2022-11-20T10:05:54.203Z,98169.24
2022-11-20T10:11:08.297Z,98159.75
2022-11-20T10:17:01.587Z,98152.09
2022-11-20T10:22:18.810Z,98149.23
2022-11-20T10:27:29.745Z,98149.95
2022-11-20T10:32:38.546Z,98140.64
2022-11-20T10:37:45.660Z,98125.13
2022-11-20T10:43:02.316Z,98116.42
2022-11-20T10:48:18.250Z,98113.05
2022-11-20T10:53:38.660Z,98110.31
2022-11-20T10:59:24.344Z,98108.80
2022-11-20T11:04:46.457Z,98108.18
2022-11-20T11:09:54.732Z,98110.10
2022-11-20T11:14:58.656Z,98107.23
2022-11-20T11:20:24.863Z,98109.31
2022-11-20T11:25:37.950Z,98112.04
2022-11-20T11:30:45.046Z,98104.84
2022-11-20T11:35:51.732Z,98092.16
2022-11-20T11:40:57.457Z,98078.92
2022-11-20T11:46:00.251Z,98084.40
2022-11-20T11:51:02.192Z,98087.61
2022-11-20T11:56:11.884Z,98083.79
2022-11-20T12:01:32.972Z,98078.48
2022-11-20T12:06:40.325Z,98073.43
2022-11-20T12:11:53.867Z,98064.70
2022-11-20T12:16:58.617Z,98058.55
2022-11-20T12:22:36.819Z,98047.19
2022-11-20T12:27:53.894Z,98039.67
2022-11-20T12:33:30.344Z,98027.05
2022-11-20T12:38:53.589Z,98027.76
2022-11-20T12:44:32.287Z,98020.02
2022-11-20T12:49:50.189Z,98015.98
2022-11-20T12:55:15.950Z,98014.84
2022-11-20T13:00:22.005Z,98007.77
2022-11-20T13:06:01.834Z,98002.54
2022-11-20T13:11:16.058Z,97995.11
2022-11-20T13:16:30.997Z,97991.55
2022-11-20T13:21:41.994Z,97985.48
2022-11-20T13:26:43.816Z,97999.27
2022-11-20T13:31:48.302Z,97998.33
2022-11-20T13:36:53.131Z,97997.17
2022-11-20T13:41:58.061Z,97988.20
2022-11-20T13:47:00.167Z,97979.02
2022-11-20T13:52:20.900Z,97979.17
2022-11-20T13:57:40.176Z,97972.48
2022-11-20T14:02:43.630Z,97975.77
2022-11-20T14:07:46.259Z,97985.16
2022-11-20T14:12:48.996Z,97981.41
2022-11-20T14:17:50.867Z,97969.05
2022-11-20T14:22:54.347Z,97968.28
2022-11-20T14:27:58.785Z,97967.36
2022-11-20T14:33:04.482Z,97968.81
2022-11-20T14:38:14.053Z,97959.56
2022-11-20T14:43:23.507Z,97951.47
2022-11-20T14:48:31.834Z,97952.30
2022-11-20T14:53:33.682Z,97945.23
2022-11-20T14:58:35.538Z,97941.71
2022-11-20T15:03:40.202Z,97943.52
2022-11-20T15:08:52.450Z,97941.77
2022-11-20T15:13:54.344Z,97938.67
2022-11-20T15:18:56.565Z,97941.33
2022-11-20T15:23:58.477Z,97939.08
2022-11-20T15:29:00.540Z,97938.33
2022-11-20T15:34:02.333Z,97931.80
2022-11-20T15:39:04.163Z,97937.83
2022-11-20T15:44:06.533Z,97928.48
2022-11-20T15:49:13.344Z,97915.89
2022-11-20T15:54:21.920Z,97914.79
2022-11-20T15:59:24.028Z,97909.30
2022-11-20T16:04:26.223Z,97905.58
2022-11-20T16:09:28.253Z,97915.48
2022-11-20T16:14:48.808Z,97911.94
2022-11-20T16:19:50.636Z,97917.50
2022-11-20T16:24:52.762Z,97922.88
2022-11-20T16:29:54.581Z,97926.80
2022-11-20T16:34:56.425Z,97928.70
2022-11-20T16:39:58.294Z,97917.20
2022-11-20T16:45:00.127Z,97898.94
2022-11-20T16:50:06.334Z,97909.27
2022-11-20T16:55:08.469Z,97926.63
2022-11-20T17:00:10.728Z,97932.71
2022-11-20T17:05:12.514Z,97935.75
2022-11-20T17:10:14.407Z,97928.85
2022-11-20T17:15:16.279Z,97919.23
2022-11-20T17:20:18.102Z,97915.98
2022-11-20T17:25:19.925Z,97913.57
2022-11-20T17:30:21.760Z,97914.31
2022-11-20T17:35:23.557Z,97904.78
2022-11-20T17:40:27.556Z,97891.14
2022-11-20T17:45:29.840Z,97880.88
2022-11-20T17:50:31.710Z,97873.77
2022-11-20T17:55:55.859Z,97873.91
2022-11-20T18:01:06.103Z,97880.33
2022-11-20T18:06:28.932Z,97886.55
2022-11-20T18:11:34.118Z,97889.08
2022-11-20T18:16:39.736Z,97889.09
2022-11-20T18:21:42.130Z,97886.87
2022-11-20T18:26:44.774Z,97889.60
2022-11-20T18:31:46.714Z,97879.55
2022-11-20T18:36:49.543Z,97882.84
2022-11-20T18:42:10.644Z,97885.41
2022-11-20T18:47:16.211Z,97888.17
2022-11-20T18:52:44.930Z,97888.16
2022-11-20T18:57:46.944Z,97883.23
2022-11-20T19:02:48.847Z,97880.93
2022-11-20T19:07:50.782Z,97876.70
2022-11-20T19:12:52.666Z,97877.72
2022-11-20T19:17:55.428Z,97876.41
2022-11-20T19:22:57.234Z,97879.02
2022-11-20T19:27:59.754Z,97886.64
2022-11-20T19:33:01.601Z,97882.38
2022-11-20T19:38:05.614Z,97879.16
2022-11-20T19:43:07.632Z,97875.67
2022-11-20T19:48:09.484Z,97876.09
2022-11-20T19:53:11.789Z,97884.78
2022-11-20T19:58:13.640Z,97887.24
2022-11-20T20:03:15.536Z,97882.44
2022-11-20T20:08:17.365Z,97877.69
2022-11-20T20:13:19.185Z,97867.11
2022-11-20T20:18:21.022Z,97867.09
2022-11-20T20:23:22.875Z,97867.07
2022-11-20T20:28:24.710Z,97872.05
2022-11-20T20:33:26.515Z,97870.05
2022-11-20T20:38:28.374Z,97864.38
2022-11-20T20:43:31.541Z,97863.41
2022-11-20T20:48:33.383Z,97860.66
2022-11-20T20:53:35.178Z,97861.89
2022-11-20T20:58:37.097Z,97865.14
2022-11-20T21:03:39.279Z,97869.00
2022-11-20T21:08:44.119Z,97865.79
2022-11-20T21:13:48.237Z,97862.63
2022-11-20T21:18:50.783Z,97871.45
2022-11-20T21:23:53.701Z,97874.05
2022-11-20T21:28:57.137Z,97883.84
2022-11-20T21:33:59.155Z,97898.57
2022-11-20T21:39:01.045Z,97896.55
2022-11-20T21:49:28.350Z,97888.32
2022-11-20T21:54:31.428Z,97883.83
2022-11-20T21:59:33.237Z,97881.07
2022-11-20T22:04:35.055Z,97877.78
2022-11-20T22:09:38.838Z,97881.02
2022-11-20T22:14:44.612Z,97888.19
2022-11-20T22:19:46.485Z,97889.73
2022-11-20T22:24:48.333Z,97891.67
2022-11-20T22:29:50.193Z,97897.68
2022-11-20T22:34:52.081Z,97904.23
2022-11-20T22:39:53.889Z,97903.44
2022-11-20T22:44:55.730Z,97905.34
2022-11-20T22:49:57.594Z,97893.04
2022-11-20T22:54:59.441Z,97895.33
2022-11-20T23:00:01.320Z,97894.27
2022-11-20T23:05:03.177Z,97896.31
2022-11-20T23:10:06.757Z,97892.77
2022-11-20T23:15:09.447Z,97893.83
2022-11-20T23:20:11.575Z,97896.60
2022-11-20T23:25:13.391Z,97891.92
2022-11-20T23:30:15.553Z,97890.77
2022-11-20T23:35:17.370Z,97901.15
2022-11-20T23:40:19.202Z,97912.77
2022-11-20T23:45:21.042Z,97911.85
2022-11-20T23:50:22.928Z,97904.87
2022-11-20T23:55:24.811Z,97900.18
